createdAt,value
2023-04-07T00:01:26.262Z,39.2
2023-04-07T00:06:26.791Z,39.1
2023-04-07T00:11:27.290Z,39.1
2023-04-07T00:16:27.841Z,39
2023-04-07T00:21:28.321Z,39
2023-04-07T00:26:28.810Z,38.9
2023-04-07T00:31:30.153Z,38.9
2023-04-07T00:36:30.897Z,38.9
2023-04-07T00:41:31.362Z,38.8
2023-04-07T00:46:31.845Z,38.7
2023-04-07T00:51:32.352Z,38.7
2023-04-07T00:56:32.820Z,38.6
2023-04-07T01:01:33.384Z,38.6
2023-04-07T01:06:34.023Z,38.6
2023-04-07T01:11:34.529Z,38.6
2023-04-07T01:16:35.058Z,38.5
2023-04-07T01:21:35.622Z,38.4
2023-04-07T01:26:36.068Z,38.4
2023-04-07T01:31:36.614Z,38.4
2023-04-07T01:36:37.174Z,38.3
2023-04-07T01:41:37.623Z,38.3
2023-04-07T01:46:38.074Z,38.2
2023-04-07T01:51:38.644Z,38.2
2023-04-07T01:56:39.259Z,38.2
2023-04-07T02:06:44.954Z,38.1
2023-04-07T02:11:45.444Z,38.1
2023-04-07T02:16:47.531Z,38
2023-04-07T02:21:49.376Z,37.9
2023-04-07T02:26:49.855Z,37.9
2023-04-07T02:31:50.271Z,37.9
2023-04-07T02:36:50.697Z,37.8
2023-04-07T02:41:51.153Z,37.8
2023-04-07T02:46:51.564Z,37.7
2023-04-07T02:51:52.017Z,37.7
2023-04-07T02:56:52.493Z,37.7
2023-04-07T03:01:53.037Z,37.6
2023-04-07T03:06:53.484Z,37.6
2023-04-07T03:11:53.877Z,37.6
2023-04-07T03:16:54.279Z,37.6
2023-04-07T03:21:54.958Z,37.5
2023-04-07T03:26:55.351Z,37.4
2023-04-07T03:31:55.708Z,37.4
2023-04-07T03:36:56.120Z,37.4
2023-04-07T03:41:56.541Z,37.3
2023-04-07T03:46:56.972Z,37.3
2023-04-07T03:51:57.340Z,37.2
2023-04-07T03:56:57.744Z,37.2
2023-04-07T04:01:58.259Z,37.2
2023-04-07T04:06:58.672Z,37.2
2023-04-07T04:11:59.081Z,37.1
2023-04-07T04:16:59.481Z,37.1
2023-04-07T04:21:59.855Z,37.1
2023-04-07T04:27:00.192Z,37
2023-04-07T04:32:00.580Z,37
2023-04-07T04:37:00.947Z,36.9
2023-04-07T04:42:01.403Z,36.9
2023-04-07T04:47:01.903Z,36.9
2023-04-07T04:52:02.401Z,36.9
2023-04-07T04:57:02.803Z,36.8
2023-04-07T05:02:03.394Z,36.7
2023-04-07T05:07:03.943Z,36.7
2023-04-07T05:12:04.339Z,36.7
2023-04-07T05:17:04.720Z,36.7
2023-04-07T05:22:05.162Z,36.6
2023-04-07T05:27:06.440Z,36.6
2023-04-07T05:32:06.857Z,36.6
2023-04-07T05:37:07.394Z,36.6
2023-04-07T05:42:07.853Z,36.5
2023-04-07T05:47:08.402Z,36.5
2023-04-07T05:52:08.781Z,36.4
2023-04-07T05:57:09.172Z,36.4
2023-04-07T06:02:09.655Z,36.4
2023-04-07T06:07:10.183Z,36.4
2023-04-07T06:12:10.614Z,36.3
2023-04-07T06:17:11.094Z,36.3
2023-04-07T06:22:11.648Z,36.2
2023-04-07T06:27:12.033Z,36.2
2023-04-07T06:32:12.697Z,36.2
2023-04-07T06:37:14.015Z,36.2
2023-04-07T06:42:14.416Z,36.1
2023-04-07T06:47:14.794Z,36.1
2023-04-07T06:52:15.193Z,36.1
2023-04-07T06:57:15.571Z,36.1
2023-04-07T07:02:16.083Z,36
2023-04-07T07:07:16.659Z,36
2023-04-07T07:12:17.042Z,35.9
2023-04-07T07:17:17.455Z,35.9
2023-04-07T07:22:17.859Z,35.9
2023-04-07T07:27:18.322Z,35.9
2023-04-07T07:32:18.706Z,35.8
2023-04-07T07:37:19.071Z,35.8
2023-04-07T07:42:19.543Z,35.7
2023-04-07T07:47:19.940Z,35.7
2023-04-07T07:52:20.373Z,35.7
2023-04-07T07:57:20.771Z,35.7
2023-04-07T08:02:21.218Z,35.6
2023-04-07T08:07:21.722Z,35.6
2023-04-07T08:12:22.098Z,35.6
2023-04-07T08:17:22.640Z,35.6
2023-04-07T08:22:23.188Z,35.6
2023-04-07T08:27:24.421Z,35.5
2023-04-07T08:32:24.807Z,35.5
2023-04-07T08:37:25.165Z,35.4
2023-04-07T08:42:25.579Z,35.4
2023-04-07T08:47:25.977Z,35.4
2023-04-07T08:52:26.500Z,35.3
2023-04-07T08:57:27.021Z,35.3
2023-04-07T09:02:27.596Z,35.2
2023-04-07T09:07:28.157Z,35.2
2023-04-07T09:12:28.868Z,35.2
2023-04-07T09:17:29.233Z,35.2
2023-04-07T09:22:29.706Z,35.1
2023-04-07T09:27:30.193Z,35.1
2023-04-07T09:32:30.548Z,35.1
2023-04-07T09:37:30.982Z,35.1
2023-04-07T09:42:31.363Z,35.1
2023-04-07T09:47:32.638Z,35
2023-04-07T09:52:33.077Z,35
2023-04-07T09:57:33.490Z,34.9
2023-04-07T10:02:33.911Z,34.9
2023-04-07T10:07:34.280Z,34.9
2023-04-07T10:12:34.640Z,34.9
2023-04-07T10:17:35.100Z,34.9
2023-04-07T10:22:35.449Z,34.8
2023-04-07T10:27:35.775Z,34.8
2023-04-07T10:32:36.126Z,34.7
2023-04-07T10:37:36.567Z,34.7
2023-04-07T10:42:36.871Z,34.7
2023-04-07T10:47:37.420Z,34.7
2023-04-07T10:52:37.799Z,34.6
2023-04-07T10:57:38.180Z,34.5
2023-04-07T11:02:38.624Z,34.5
2023-04-07T11:07:39.286Z,34.4
2023-04-07T11:12:39.577Z,34.4
2023-04-07T11:17:39.946Z,34.4
2023-04-07T11:22:40.285Z,34.4
2023-04-07T11:27:41.528Z,34.3
2023-04-07T11:32:41.858Z,34.3
2023-04-07T11:37:43.089Z,34.3
2023-04-07T11:42:43.404Z,34.2
2023-04-07T11:47:43.831Z,34.2
2023-04-07T11:52:44.165Z,34.2
2023-04-07T11:57:44.507Z,34.2
2023-04-07T12:02:44.912Z,34.2
2023-04-07T12:07:45.463Z,34.1
2023-04-07T12:12:45.760Z,34.1
2023-04-07T12:17:46.081Z,34.1
2023-04-07T12:22:46.403Z,34.1
2023-04-07T12:27:47.611Z,34.1
2023-04-07T12:32:47.945Z,34
2023-04-07T12:37:49.959Z,34
2023-04-07T12:42:51.384Z,34
2023-04-07T12:47:51.751Z,33.9
2023-04-07T12:52:52.066Z,33.9
2023-04-07T12:57:52.425Z,33.9
2023-04-07T13:02:52.833Z,33.9
2023-04-07T13:07:53.428Z,33.9
2023-04-07T13:12:53.737Z,33.8
2023-04-07T13:23:05.889Z,33.8
2023-04-07T13:28:07.442Z,33.7
2023-04-07T13:33:07.840Z,33.7
2023-04-07T13:38:08.345Z,33.7
2023-04-07T13:43:08.726Z,33.7
2023-04-07T13:48:09.966Z,33.7
2023-04-07T13:53:11.473Z,33.7
2023-04-07T13:58:11.897Z,33.6
2023-04-07T14:03:12.326Z,33.6
2023-04-07T14:08:12.920Z,33.6
2023-04-07T14:13:13.304Z,33.6
2023-04-07T14:18:13.700Z,33.6
2023-04-07T14:23:18.615Z,33.5
2023-04-07T14:28:23.684Z,33.5
2023-04-07T14:33:24.009Z,33.4
2023-04-07T14:38:24.363Z,33.4
2023-04-07T14:43:24.808Z,33.4
2023-04-07T14:48:25.109Z,33.4
2023-04-07T14:53:25.528Z,33.4
2023-04-07T14:58:25.872Z,33.4
2023-04-07T15:03:26.484Z,33.4
2023-04-07T15:08:27.043Z,33.3
2023-04-07T15:13:27.555Z,33.3
2023-04-07T15:18:27.842Z,33.2
2023-04-07T15:23:28.125Z,33.2
2023-04-07T15:28:28.456Z,33.2
2023-04-07T15:33:28.727Z,33.2
2023-04-07T15:38:29.051Z,33.2
2023-04-07T15:43:29.363Z,33.2
2023-04-07T15:48:29.747Z,33.2
2023-04-07T15:53:30.046Z,33.1
2023-04-07T15:58:30.336Z,33.1
2023-04-07T16:03:30.725Z,33.1
2023-04-07T16:08:31.077Z,33.1
2023-04-07T16:13:31.473Z,33.1
2023-04-07T16:18:31.817Z,33.1
2023-04-07T16:23:32.181Z,33
2023-04-07T16:28:32.538Z,33
2023-04-07T16:33:32.813Z,33
2023-04-07T16:38:33.261Z,35.2
2023-04-07T16:43:36.721Z,37.5
2023-04-07T16:48:37.384Z,40.2
2023-04-07T16:53:38.800Z,41.4
2023-04-07T16:58:39.341Z,41.6
2023-04-07T17:03:40.032Z,42.1
2023-04-07T17:08:40.910Z,43.3
2023-04-07T17:13:41.773Z,43.7
2023-04-07T17:18:42.438Z,43.7
2023-04-07T17:23:43.096Z,44.4
2023-04-07T17:28:43.762Z,44.6
2023-04-07T17:33:44.426Z,44.6
2023-04-07T17:38:45.253Z,44.6
2023-04-07T17:43:46.388Z,44.6
2023-04-07T17:48:47.348Z,44.6
2023-04-07T17:53:48.479Z,44.5
2023-04-07T17:58:49.264Z,44.5
2023-04-07T18:03:50.278Z,44.4
2023-04-07T18:08:51.185Z,44.4
2023-04-07T18:13:51.869Z,44.4
2023-04-07T18:18:52.631Z,44.4
2023-04-07T18:23:53.338Z,44.3
2023-04-07T18:28:53.950Z,44.3
2023-04-07T18:33:54.556Z,44.2
2023-04-07T18:38:55.245Z,44.2
2023-04-07T18:43:55.884Z,44.2
2023-04-07T18:48:56.527Z,44.2
2023-04-07T18:53:57.159Z,44.2
2023-04-07T18:58:57.794Z,44.1
2023-04-07T19:03:59.314Z,44.1
2023-04-07T19:09:01.013Z,44.1
2023-04-07T19:14:01.989Z,44
2023-04-07T19:19:02.682Z,44
2023-04-07T19:24:03.302Z,43.9
2023-04-07T19:29:03.962Z,43.9
2023-04-07T19:34:04.617Z,43.9
2023-04-07T19:39:05.339Z,43.9
2023-04-07T19:44:05.952Z,43.8
2023-04-07T19:49:06.657Z,43.7
2023-04-07T19:54:07.283Z,43.7
2023-04-07T19:59:08.745Z,43.6
2023-04-07T20:04:09.378Z,43.6
2023-04-07T20:09:10.093Z,43.5
2023-04-07T20:14:10.736Z,43.5
2023-04-07T20:19:11.365Z,43.4
2023-04-07T20:24:11.967Z,43.4
2023-04-07T20:29:12.579Z,43.4
2023-04-07T20:34:13.208Z,43.3
2023-04-07T20:39:13.795Z,43.3
2023-04-07T20:44:14.368Z,43.2
2023-04-07T20:49:14.942Z,43.2
2023-04-07T20:54:15.875Z,43.1
2023-04-07T20:59:16.427Z,43.1
2023-04-07T21:04:17.041Z,43.1
2023-04-07T21:09:17.785Z,43
2023-04-07T21:14:18.350Z,43
2023-04-07T21:19:18.907Z,42.9
2023-04-07T21:24:19.469Z,42.9
2023-04-07T21:29:20.048Z,42.9
2023-04-07T21:34:20.655Z,42.8
2023-04-07T21:39:21.298Z,42.7
2023-04-07T21:44:21.921Z,42.7
2023-04-07T21:49:22.490Z,42.7
2023-04-07T21:54:23.040Z,42.6
2023-04-07T21:59:23.682Z,42.6
2023-04-07T22:04:24.337Z,42.6
2023-04-07T22:09:24.979Z,42.5
2023-04-07T22:14:25.577Z,42.5
2023-04-07T22:19:26.102Z,42.4
2023-04-07T22:24:26.640Z,42.4
2023-04-07T22:29:27.209Z,42.3
2023-04-07T22:34:27.822Z,42.3
2023-04-07T22:39:28.371Z,42.2
2023-04-07T22:44:28.990Z,42.2
2023-04-07T22:49:29.578Z,42.2
2023-04-07T22:54:30.109Z,42.1
2023-04-07T22:59:30.610Z,42.1
2023-04-07T23:04:31.196Z,42
2023-04-07T23:09:31.820Z,42
2023-04-07T23:14:32.324Z,41.9
2023-04-07T23:19:32.876Z,41.9
2023-04-07T23:24:33.376Z,41.9
2023-04-07T23:29:33.937Z,41.8
2023-04-07T23:34:34.399Z,41.7
2023-04-07T23:39:34.911Z,41.7
2023-04-07T23:44:35.406Z,41.7
2023-04-07T23:49:35.956Z,41.6
2023-04-07T23:54:36.461Z,41.6
2023-04-07T23:59:36.987Z,41.6
